Hauptseite
METAR-TAF:

METAR-TAF

Flughäfen :

Flugplatz Buochs

Buochs, Schweiz

Breite: 46-58-28N, Länge: 8-23-49E, Höhe: 449 m

Beobachtung

Neuester Wetterbericht von vor 24 Minuten, um 03:20 UTC
Wind 3 kt aus Südwest
Temperatur 9°C
Luftfeuchtigkeit 71%
Luftdruck 1018 hPa
Sichtweite 10 km oder mehr
keine Wolken unter 1500 m und keine Kumulonimbus oder Gewitterwolken

METAR: LSZC 160320Z AUTO 23003KT CAVOK 09/04 Q1018

Zeit: 05:44 (03:44 UTC)

Prognose

Neuester Wetterbericht von vor 13 Stunden und 19 Minuten, um 14:25 UTC
Gültige Prognose vom 15 um 15 UTC bis 15 um 24 UTC
Wind 7 kt aus Nordost
Sichtweite 10 km oder mehr
keine Wolken unter 1500 m und keine Kumulonimbus oder Gewitterwolken

TAF: LSZC 151425Z 1515/1524 05007KT CAVOK

Wetterbeobachtungen und Prognosen von mehr als 4000 Flughäfen (METAR und TAF Bericht).

Die verfügbaren Stationen werden durch gelbe und rote Markierungen auf der Karte dargestellt.

Führen Sie die Maus auf sie, um den Namen der Station zu sehen.

Darauf klicken, um die Beobachtung von Wetterbeobachtungen und Prognosen zu sehen.

Um die Karte zu ändern : klicken Sie auf den grünen Tasten mit einem schwarzen Kreuz Zum Vergrößern, auf den grünen Button mit einem Gedankenstrich zu verkleinern, oder auf die grünen Pfeile für benachbarte Karten.


METAR-TAF: